Time;durP1;ratioP1;P1;durP2;ratioP2;P2;SDS_P1;SDS_P2;PMS_P1;PMS_P2;Temp;Humidity;BMP_temperature;BMP_pressure;BME280_temperature;BME280_humidity;BME280_pressure;Samples;Min_cycle;Max_cycle;Signal;HPM_P1;HPM_P2
2023/01/12 00:02:13;;;;;;;7.32;1.60;;;;;;;;;;5092801;28;20078;-86
2023/01/12 00:04:40;;;;;;;9.32;1.60;;;;;;;;;;5092715;28;20458;-92
2023/01/12 00:07:08;;;;;;;4.90;1.50;;;;;;;;;;5092681;28;20112;-88
2023/01/12 00:09:36;;;;;;;4.13;1.30;;;;;;;;;;5092638;28;20479;-91
2023/01/12 00:12:04;;;;;;;6.63;1.38;;;;;;;;;;5092568;28;20055;-88
2023/01/12 00:14:36;;;;;;;7.30;1.98;;;;;;;;;;5092658;28;20048;-86
2023/01/12 00:17:05;;;;;;;6.90;1.23;;;;;;;;;;5092197;28;20080;-86
2023/01/12 00:19:32;;;;;;;7.50;1.73;;;;;;;;;;5096123;28;20415;-86
2023/01/12 00:22:04;;;;;;;12.13;1.83;;;;;;;;;;5096687;28;20048;-86
2023/01/12 00:24:36;;;;;;;4.95;1.23;;;;;;;;;;5096864;28;20048;-85
2023/01/12 00:27:04;;;;;;;8.63;1.23;;;;;;;;;;5096686;28;20052;-86
2023/01/12 00:29:32;;;;;;;8.10;1.42;;;;;;;;;;5096456;28;20055;-86
2023/01/12 00:31:59;;;;;;;8.52;1.58;;;;;;;;;;5096202;28;20493;-86
2023/01/12 00:34:27;;;;;;;6.78;1.10;;;;;;;;;;5096144;28;20056;-85
2023/01/12 00:36:59;;;;;;;4.20;1.30;;;;;;;;;;5096171;28;20062;-86
2023/01/12 00:39:26;;;;;;;5.45;1.63;;;;;;;;;;5096298;28;20123;-86
2023/01/12 00:47:25;;;;;;;3.80;1.13;;;;;;;;;;5097146;28;20135;-89
2023/01/12 00:49:52;;;;;;;8.68;1.88;;;;;;;;;;5096104;28;20051;-88
2023/01/12 00:52:20;;;;;;;7.47;1.30;;;;;;;;;;5096050;28;20054;-86
2023/01/12 00:54:57;;;;;;;10.85;1.35;;;;;;;;;;5096024;28;20435;-86
2023/01/12 00:57:24;;;;;;;7.22;1.50;;;;;;;;;;5095761;28;20047;-86
2023/01/12 00:59:53;;;;;;;11.18;1.50;;;;;;;;;;5096412;28;20488;-86
2023/01/12 01:02:21;;;;;;;5.20;1.48;;;;;;;;;;5097109;28;20479;-85
2023/01/12 01:04:49;;;;;;;11.80;1.42;;;;;;;;;;5096490;28;20138;-85
2023/01/12 01:07:17;;;;;;;7.30;1.50;;;;;;;;;;5095624;28;20101;-85
2023/01/12 01:09:44;;;;;;;9.40;2.17;;;;;;;;;;5095923;28;20050;-86
2023/01/12 01:12:14;;;;;;;13.88;1.70;;;;;;;;;;5095684;28;20481;-85
2023/01/12 01:14:41;;;;;;;8.25;1.50;;;;;;;;;;5095699;28;20051;-86
2023/01/12 01:17:09;;;;;;;6.95;2.03;;;;;;;;;;5095298;28;20048;-85
2023/01/12 01:19:36;;;;;;;8.65;1.50;;;;;;;;;;5095223;28;20450;-85
2023/01/12 01:22:03;;;;;;;10.55;1.50;;;;;;;;;;5095413;28;20075;-86
2023/01/12 01:24:30;;;;;;;8.45;1.67;;;;;;;;;;5095180;28;20127;-85
2023/01/12 01:26:57;;;;;;;6.43;1.70;;;;;;;;;;5095581;28;20399;-86
2023/01/12 01:29:27;;;;;;;7.18;1.60;;;;;;;;;;5095097;28;20052;-88
2023/01/12 01:31:55;;;;;;;9.55;1.85;;;;;;;;;;5095351;28;20135;-87
2023/01/12 01:34:25;;;;;;;5.30;1.60;;;;;;;;;;5095180;28;20134;-89
2023/01/12 01:36:52;;;;;;;7.82;1.40;;;;;;;;;;5095193;28;20048;-87
2023/01/12 01:39:19;;;;;;;6.32;1.70;;;;;;;;;;5095375;28;20044;-86
2023/01/12 01:41:47;;;;;;;7.43;1.63;;;;;;;;;;5095187;28;20075;-86
2023/01/12 01:44:29;;;;;;;6.80;1.60;;;;;;;;;;5095072;28;20048;-85
2023/01/12 01:47:01;;;;;;;7.95;1.92;;;;;;;;;;5094785;28;20044;-86
2023/01/12 01:49:38;;;;;;;7.88;2.30;;;;;;;;;;5095118;28;20399;-86
2023/01/12 01:52:11;;;;;;;10.98;1.63;;;;;;;;;;5094910;28;20147;-87
2023/01/12 01:54:44;;;;;;;9.35;1.67;;;;;;;;;;5094880;28;20551;-86
2023/01/12 01:57:12;;;;;;;10.90;2.10;;;;;;;;;;5094300;28;20058;-87
2023/01/12 01:59:42;;;;;;;6.55;1.92;;;;;;;;;;5094747;28;20052;-85
2023/01/12 02:02:13;;;;;;;6.03;1.58;;;;;;;;;;5094736;28;20056;-86
2023/01/12 02:04:40;;;;;;;10.50;1.88;;;;;;;;;;5094773;28;20101;-86
2023/01/12 02:07:08;;;;;;;8.38;1.50;;;;;;;;;;5094666;28;20067;-87
2023/01/12 02:09:35;;;;;;;7.30;1.67;;;;;;;;;;5095406;28;20075;-88
2023/01/12 02:17:42;;;;;;;8.80;1.38;;;;;;;;;;5095021;28;20496;-88
2023/01/12 02:20:25;;;;;;;6.60;1.65;;;;;;;;;;5094315;28;20044;-89
2023/01/12 02:22:58;;;;;;;9.98;2.22;;;;;;;;;;5094377;28;20135;-88
2023/01/12 02:25:25;;;;;;;8.52;1.85;;;;;;;;;;5094511;28;20127;-88
2023/01/12 02:28:04;;;;;;;9.40;1.85;;;;;;;;;;5094096;28;20048;-89
2023/01/12 02:30:59;;;;;;;7.50;2.20;;;;;;;;;;5094008;28;20420;-88
2023/01/12 02:33:36;;;;;;;12.90;2.17;;;;;;;;;;5094020;28;20078;-87
2023/01/12 02:36:07;;;;;;;13.52;2.35;;;;;;;;;;5093900;28;20066;-86
2023/01/12 02:38:36;;;;;;;11.38;2.28;;;;;;;;;;5094074;28;20509;-88
2023/01/12 02:42:39;;;;;;;8.48;1.85;;;;;;;;;;5093103;28;20075;-89
2023/01/12 02:44:16;;;;;;;8.07;1.80;;;;;;;;;;5094674;28;20139;-88
2023/01/12 02:46:45;;;;;;;8.35;1.52;;;;;;;;;;5093930;28;20079;-90
2023/01/12 02:49:14;;;;;;;12.60;2.15;;;;;;;;;;5093870;28;20484;-87
2023/01/12 02:51:41;;;;;;;11.55;1.75;;;;;;;;;;5094252;28;20040;-86
2023/01/12 02:54:13;;;;;;;5.95;1.50;;;;;;;;;;5093735;28;20135;-87
2023/01/12 02:56:43;;;;;;;11.43;2.28;;;;;;;;;;5093563;28;20095;-87
2023/01/12 02:59:30;;;;;;;13.50;2.22;;;;;;;;;;5093631;28;20052;-88
2023/01/12 03:02:00;;;;;;;8.85;2.17;;;;;;;;;;5093472;28;20048;-88
2023/01/12 03:04:29;;;;;;;8.35;1.60;;;;;;;;;;5093524;28;20051;-88
2023/01/12 03:06:56;;;;;;;8.95;1.80;;;;;;;;;;5093366;28;20052;-87
2023/01/12 03:09:28;;;;;;;10.32;2.22;;;;;;;;;;5093592;28;20062;-88
2023/01/12 03:11:59;;;;;;;10.02;1.92;;;;;;;;;;5093391;28;20048;-88
2023/01/12 03:14:27;;;;;;;10.07;2.20;;;;;;;;;;5093294;28;20054;-88
2023/01/12 03:16:56;;;;;;;13.30;1.75;;;;;;;;;;5092807;28;20163;-87
2023/01/12 03:19:27;;;;;;;8.55;2.25;;;;;;;;;;5093252;28;20051;-88
2023/01/12 03:21:55;;;;;;;11.60;2.22;;;;;;;;;;5093132;28;20268;-88
2023/01/12 03:24:25;;;;;;;8.40;1.70;;;;;;;;;;5093731;28;20051;-87
2023/01/12 03:26:55;;;;;;;12.10;2.55;;;;;;;;;;5093116;28;20044;-89
2023/01/12 03:29:27;;;;;;;6.47;1.67;;;;;;;;;;5093260;28;20490;-88
2023/01/12 03:31:55;;;;;;;9.68;2.33;;;;;;;;;;5093603;28;20484;-87
2023/01/12 03:34:23;;;;;;;9.82;1.67;;;;;;;;;;5093369;28;20054;-87
2023/01/12 03:37:06;;;;;;;15.65;1.65;;;;;;;;;;5092932;28;20048;-88
2023/01/12 03:39:40;;;;;;;9.80;2.05;;;;;;;;;;5092624;28;20048;-87
2023/01/12 03:42:10;;;;;;;10.07;2.05;;;;;;;;;;5092766;28;20054;-89
2023/01/12 03:44:45;;;;;;;7.05;1.90;;;;;;;;;;5093093;28;20447;-86
2023/01/12 03:47:17;;;;;;;9.38;1.77;;;;;;;;;;5093515;28;20044;-86
2023/01/12 03:49:47;;;;;;;13.20;2.03;;;;;;;;;;5092541;28;20381;-87
2023/01/12 03:52:15;;;;;;;12.27;1.60;;;;;;;;;;5092751;28;20139;-87
2023/01/12 03:54:43;;;;;;;7.43;1.50;;;;;;;;;;5092653;28;20073;-87
2023/01/12 03:57:11;;;;;;;6.18;1.70;;;;;;;;;;5092388;28;20044;-90
2023/01/12 03:59:38;;;;;;;12.30;1.92;;;;;;;;;;5092992;28;20048;-89
2023/01/12 04:02:06;;;;;;;11.93;2.70;;;;;;;;;;5092422;28;20056;-88
2023/01/12 04:04:33;;;;;;;9.45;1.63;;;;;;;;;;5092559;28;20127;-87
2023/01/12 04:07:00;;;;;;;7.90;1.88;;;;;;;;;;5092564;28;20066;-87
2023/01/12 04:09:28;;;;;;;11.35;2.63;;;;;;;;;;5092709;28;20048;-88
2023/01/12 04:12:10;;;;;;;8.50;1.55;;;;;;;;;;5092562;28;20052;-87
2023/01/12 04:14:41;;;;;;;12.32;2.10;;;;;;;;;;5092523;28;20127;-89
2023/01/12 04:17:12;;;;;;;15.02;2.10;;;;;;;;;;5092344;28;20431;-90
2023/01/12 04:19:39;;;;;;;9.48;1.88;;;;;;;;;;5092436;28;20048;-91
2023/01/12 04:24:53;;;;;;;11.25;2.25;;;;;;;;;;5093546;28;20044;-88
2023/01/12 04:27:20;;;;;;;9.10;1.60;;;;;;;;;;5092278;28;20514;-88
2023/01/12 04:29:47;;;;;;;5.93;1.70;;;;;;;;;;5092429;28;20066;-87
2023/01/12 04:32:14;;;;;;;12.73;2.13;;;;;;;;;;5092297;28;20048;-88
2023/01/12 04:34:41;;;;;;;10.45;1.70;;;;;;;;;;5092501;28;20510;-85
2023/01/12 04:37:09;;;;;;;16.10;2.08;;;;;;;;;;5091483;28;20055;-89
2023/01/12 04:39:36;;;;;;;14.05;1.92;;;;;;;;;;5092061;28;20146;-88
2023/01/12 04:42:03;;;;;;;6.35;1.50;;;;;;;;;;5093047;28;20480;-88
2023/01/12 04:44:31;;;;;;;9.25;1.50;;;;;;;;;;5092314;28;20076;-88
2023/01/12 04:46:58;;;;;;;9.07;1.60;;;;;;;;;;5092092;28;20055;-87
2023/01/12 04:49:25;;;;;;;7.88;1.50;;;;;;;;;;5092124;28;20074;-87
2023/01/12 04:51:52;;;;;;;8.05;1.55;;;;;;;;;;5091926;28;20048;-87
2023/01/12 04:54:19;;;;;;;5.00;1.40;;;;;;;;;;5092035;28;20492;-88
2023/01/12 04:56:47;;;;;;;8.18;1.77;;;;;;;;;;5091828;28;20062;-87
2023/01/12 04:59:14;;;;;;;7.47;1.20;;;;;;;;;;5092304;28;20062;-88
2023/01/12 05:01:41;;;;;;;10.18;1.75;;;;;;;;;;5092213;28;20132;-88
2023/01/12 05:04:08;;;;;;;7.25;2.05;;;;;;;;;;5093528;28;20067;-88
2023/01/12 05:06:36;;;;;;;10.32;1.48;;;;;;;;;;5095614;28;20105;-89
2023/01/12 05:11:48;;;;;;;7.60;1.80;;;;;;;;;;5097252;28;20067;-90
2023/01/12 05:14:16;;;;;;;6.28;1.73;;;;;;;;;;5096118;28;20138;-89
2023/01/12 05:16:43;;;;;;;9.00;1.50;;;;;;;;;;5095024;28;20054;-88
2023/01/12 05:19:10;;;;;;;7.80;1.48;;;;;;;;;;5095580;28;20048;-89
2023/01/12 05:21:37;;;;;;;6.80;1.55;;;;;;;;;;5095577;28;20040;-89
2023/01/12 05:24:06;;;;;;;7.35;1.80;;;;;;;;;;5095513;28;20074;-85
2023/01/12 05:26:33;;;;;;;7.75;1.50;;;;;;;;;;5095551;28;20048;-88
2023/01/12 05:29:00;;;;;;;12.55;1.83;;;;;;;;;;5096518;28;20052;-88
2023/01/12 05:31:27;;;;;;;13.35;3.20;;;;;;;;;;5095478;28;20488;-89
2023/01/12 05:33:55;;;;;;;8.07;1.95;;;;;;;;;;5095438;28;20048;-88
2023/01/12 05:36:22;;;;;;;11.38;2.20;;;;;;;;;;5095056;28;20071;-88
2023/01/12 05:38:52;;;;;;;8.00;1.65;;;;;;;;;;5095264;28;20048;-88
2023/01/12 05:41:21;;;;;;;9.38;2.15;;;;;;;;;;5095303;28;20054;-88
2023/01/12 05:43:49;;;;;;;14.00;1.88;;;;;;;;;;5095188;28;20139;-87
2023/01/12 05:46:20;;;;;;;10.45;1.95;;;;;;;;;;5094987;28;20082;-90
2023/01/12 05:48:47;;;;;;;9.13;1.33;;;;;;;;;;5094837;28;20048;-87
2023/01/12 05:51:15;;;;;;;10.73;1.70;;;;;;;;;;5094960;28;20063;-88
2023/01/12 05:53:44;;;;;;;9.30;1.92;;;;;;;;;;5095097;28;20094;-88
2023/01/12 05:56:18;;;;;;;8.23;1.90;;;;;;;;;;5094839;28;20068;-87
2023/01/12 05:58:50;;;;;;;10.70;2.13;;;;;;;;;;5094159;28;20127;-88
2023/01/12 06:01:17;;;;;;;7.45;1.70;;;;;;;;;;5094663;28;20139;-89
2023/01/12 06:03:48;;;;;;;10.43;2.05;;;;;;;;;;5094445;28;20466;-88
2023/01/12 06:06:16;;;;;;;9.55;1.90;;;;;;;;;;5094698;28;20086;-88
2023/01/12 06:08:44;;;;;;;12.02;2.42;;;;;;;;;;5095773;28;20117;-88
2023/01/12 06:13:55;;;;;;;10.60;3.10;;;;;;;;;;5094630;28;20052;-89
2023/01/12 06:13:59;;;;;;;9.43;3.00;;;;;;;;;;5095355;28;20567;-88
2023/01/12 06:16:27;;;;;;;14.00;1.90;;;;;;;;;;5093074;28;20087;-89
2023/01/12 06:18:55;;;;;;;9.85;2.03;;;;;;;;;;5095338;28;20087;-91
2023/01/12 06:21:22;;;;;;;11.25;2.40;;;;;;;;;;5094307;28;20410;-88
2023/01/12 06:23:49;;;;;;;11.05;1.80;;;;;;;;;;5093938;28;20106;-89
2023/01/12 06:26:17;;;;;;;8.07;2.03;;;;;;;;;;5094014;28;20048;-88
2023/01/12 06:28:44;;;;;;;8.68;1.67;;;;;;;;;;5094149;28;20070;-89
2023/01/12 06:31:12;;;;;;;14.50;1.85;;;;;;;;;;5094246;28;20111;-91
2023/01/12 06:33:42;;;;;;;5.65;1.58;;;;;;;;;;5094940;28;20036;-87
2023/01/12 06:36:10;;;;;;;5.90;1.27;;;;;;;;;;5093193;28;20055;-88
2023/01/12 06:38:37;;;;;;;9.10;1.80;;;;;;;;;;5091872;28;20048;-88
2023/01/12 06:43:56;;;;;;;7.32;1.75;;;;;;;;;;5094990;28;20075;-87
2023/01/12 06:46:29;;;;;;;12.35;2.10;;;;;;;;;;5093793;28;20556;-88
2023/01/12 06:48:57;;;;;;;11.27;1.70;;;;;;;;;;5093870;28;20408;-90
2023/01/12 06:51:24;;;;;;;10.80;2.72;;;;;;;;;;5093869;28;20298;-88
2023/01/12 06:53:51;;;;;;;11.43;1.80;;;;;;;;;;5093976;28;20058;-87
2023/01/12 06:56:18;;;;;;;8.85;1.75;;;;;;;;;;5093993;28;20056;-87
2023/01/12 06:58:46;;;;;;;10.80;1.50;;;;;;;;;;5093651;28;20058;-88
2023/01/12 07:01:13;;;;;;;7.13;1.38;;;;;;;;;;5094684;28;20101;-88
2023/01/12 07:03:44;;;;;;;11.75;2.03;;;;;;;;;;5093379;28;20551;-89
2023/01/12 07:06:13;;;;;;;12.52;1.80;;;;;;;;;;5093501;28;20055;-87
2023/01/12 07:08:41;;;;;;;11.57;1.77;;;;;;;;;;5093687;28;20048;-88
2023/01/12 07:11:11;;;;;;;9.38;2.95;;;;;;;;;;5093548;28;20052;-86
2023/01/12 07:13:38;;;;;;;9.15;1.50;;;;;;;;;;5093410;28;20056;-87
2023/01/12 07:16:06;;;;;;;10.52;2.13;;;;;;;;;;5092822;28;20063;-88
2023/01/12 07:18:33;;;;;;;13.82;2.90;;;;;;;;;;5093200;28;20070;-87
2023/01/12 07:21:08;;;;;;;6.75;1.90;;;;;;;;;;5093052;28;20584;-88
2023/01/12 07:23:36;;;;;;;10.40;1.52;;;;;;;;;;5093159;28;20134;-85
2023/01/12 07:26:04;;;;;;;15.50;2.20;;;;;;;;;;5093340;28;20048;-87
2023/01/12 07:28:32;;;;;;;9.35;1.52;;;;;;;;;;5092587;28;20048;-88
2023/01/12 07:31:00;;;;;;;10.35;1.52;;;;;;;;;;5093022;28;20109;-85
2023/01/12 07:33:31;;;;;;;7.15;1.75;;;;;;;;;;5093042;28;20048;-87
2023/01/12 07:35:59;;;;;;;5.13;1.35;;;;;;;;;;5092760;28;20101;-87
2023/01/12 07:38:27;;;;;;;24.45;3.00;;;;;;;;;;5092974;28;20090;-88
2023/01/12 07:40:54;;;;;;;8.45;1.58;;;;;;;;;;5092713;28;20403;-86
2023/01/12 07:43:22;;;;;;;11.35;2.17;;;;;;;;;;5093899;28;20054;-85
2023/01/12 07:45:49;;;;;;;8.73;1.48;;;;;;;;;;5092712;28;20052;-87
2023/01/12 07:48:16;;;;;;;11.18;2.20;;;;;;;;;;5092922;28;20451;-89
2023/01/12 07:50:44;;;;;;;11.25;2.10;;;;;;;;;;5092885;28;20048;-85
2023/01/12 07:53:11;;;;;;;8.43;1.48;;;;;;;;;;5092878;28;20561;-87
2023/01/12 07:55:38;;;;;;;7.53;1.17;;;;;;;;;;5092688;28;20044;-88
2023/01/12 07:58:07;;;;;;;8.55;1.70;;;;;;;;;;5092706;28;20048;-88
2023/01/12 08:00:35;;;;;;;11.52;2.47;;;;;;;;;;5092702;28;20062;-91
2023/01/12 08:03:05;;;;;;;11.90;1.52;;;;;;;;;;5092969;28;20040;-90
2023/01/12 08:05:32;;;;;;;7.07;1.80;;;;;;;;;;5092866;28;20048;-88
2023/01/12 08:08:00;;;;;;;8.05;1.73;;;;;;;;;;5092657;28;20052;-89
2023/01/12 08:10:29;;;;;;;10.98;1.70;;;;;;;;;;5092842;28;20062;-89
2023/01/12 08:12:57;;;;;;;7.18;1.70;;;;;;;;;;5092911;28;20055;-88
2023/01/12 08:15:25;;;;;;;7.85;1.90;;;;;;;;;;5093206;28;20395;-85
2023/01/12 08:17:54;;;;;;;9.90;1.55;;;;;;;;;;5092556;28;20571;-89
2023/01/12 08:20:23;;;;;;;8.55;2.00;;;;;;;;;;5092446;28;20412;-88
2023/01/12 08:22:52;;;;;;;6.45;1.63;;;;;;;;;;5092460;28;20080;-89
2023/01/12 08:25:25;;;;;;;7.45;1.52;;;;;;;;;;5092660;28;20062;-88
2023/01/12 08:27:55;;;;;;;8.45;1.45;;;;;;;;;;5092520;28;20147;-89
2023/01/12 08:30:24;;;;;;;9.40;2.10;;;;;;;;;;5092109;28;20044;-88
2023/01/12 08:32:51;;;;;;;7.00;1.45;;;;;;;;;;5092237;28;20631;-88
2023/01/12 08:35:20;;;;;;;7.55;1.25;;;;;;;;;;5092297;28;20555;-91
2023/01/12 08:37:47;;;;;;;4.13;1.40;;;;;;;;;;5092210;28;20048;-90
2023/01/12 08:40:15;;;;;;;10.10;1.77;;;;;;;;;;5095293;28;20044;-87
2023/01/12 08:42:42;;;;;;;6.43;1.45;;;;;;;;;;5096650;28;20046;-87
2023/01/12 08:45:10;;;;;;;7.50;1.52;;;;;;;;;;5096536;28;20088;-88
2023/01/12 08:47:39;;;;;;;4.20;1.52;;;;;;;;;;5096214;28;20139;-88
2023/01/12 08:50:07;;;;;;;6.25;1.13;;;;;;;;;;5096154;28;20056;-88
2023/01/12 08:52:35;;;;;;;3.25;1.00;;;;;;;;;;5097560;28;20071;-89
2023/01/12 08:55:03;;;;;;;8.80;1.48;;;;;;;;;;5096325;28;20476;-91
2023/01/12 08:57:30;;;;;;;3.58;0.95;;;;;;;;;;5096182;28;20062;-89
2023/01/12 08:59:57;;;;;;;9.00;2.28;;;;;;;;;;5095984;28;20056;-89
2023/01/12 09:02:25;;;;;;;3.58;1.00;;;;;;;;;;5096964;28;20051;-88
2023/01/12 09:04:53;;;;;;;5.05;1.08;;;;;;;;;;5094174;28;20056;-88
2023/01/12 09:07:21;;;;;;;2.88;0.90;;;;;;;;;;5095238;28;20044;-89
2023/01/12 09:09:48;;;;;;;6.60;1.10;;;;;;;;;;5095959;28;20056;-88
2023/01/12 09:12:15;;;;;;;5.38;0.98;;;;;;;;;;5095895;28;20044;-89
2023/01/12 09:14:42;;;;;;;4.07;0.93;;;;;;;;;;5095212;28;20048;-88
2023/01/12 09:17:09;;;;;;;4.78;0.98;;;;;;;;;;5095438;28;20060;-87
2023/01/12 09:19:37;;;;;;;4.35;1.10;;;;;;;;;;5095536;28;20394;-89
2023/01/12 09:22:04;;;;;;;5.93;0.95;;;;;;;;;;5095302;28;20161;-88
2023/01/12 09:24:31;;;;;;;4.78;0.85;;;;;;;;;;5095435;28;20070;-89
2023/01/12 09:26:58;;;;;;;2.63;0.70;;;;;;;;;;5095559;28;20400;-87
2023/01/12 09:29:26;;;;;;;3.03;0.70;;;;;;;;;;5095366;28;20097;-87
2023/01/12 09:31:53;;;;;;;1.88;0.70;;;;;;;;;;5095516;28;20044;-87
2023/01/12 09:34:20;;;;;;;3.22;0.88;;;;;;;;;;5095136;28;20139;-86
2023/01/12 09:36:51;;;;;;;3.72;0.70;;;;;;;;;;5095167;28;20143;-88
2023/01/12 09:39:18;;;;;;;2.88;0.98;;;;;;;;;;5095298;28;20048;-90
2023/01/12 09:47:36;;;;;;;2.58;0.70;;;;;;;;;;5096304;28;20055;-87
2023/01/12 09:50:05;;;;;;;1.45;0.60;;;;;;;;;;5094997;28;20143;-88
2023/01/12 09:52:36;;;;;;;;;;;;;;;;;;5095487;28;20055;-88
2023/01/12 09:55:05;;;;;;;3.63;1.20;;;;;;;;;;5095104;28;19920;-89
2023/01/12 09:57:51;;;;;;;2.83;0.63;;;;;;;;;;5094731;28;20044;-88
2023/01/12 10:00:19;;;;;;;1.52;0.68;;;;;;;;;;5094760;28;20054;-87
2023/01/12 10:02:49;;;;;;;1.00;0.45;;;;;;;;;;5094775;28;20048;-87
2023/01/12 10:05:28;;;;;;;2.35;0.57;;;;;;;;;;5094765;28;20048;-88
2023/01/12 10:08:06;;;;;;;3.03;0.75;;;;;;;;;;5094957;28;20465;-88
2023/01/12 10:10:33;;;;;;;3.63;0.60;;;;;;;;;;5094675;28;20048;-87
2023/01/12 10:13:04;;;;;;;4.45;0.70;;;;;;;;;;5094562;28;20062;-87
2023/01/12 10:15:38;;;;;;;2.22;0.40;;;;;;;;;;5094421;28;20131;-88
2023/01/12 10:18:30;;;;;;;1.98;0.52;;;;;;;;;;5094561;28;20047;-89
2023/01/12 10:20:58;;;;;;;2.25;0.47;;;;;;;;;;5094583;28;20044;-88
2023/01/12 10:23:26;;;;;;;2.35;0.40;;;;;;;;;;5094331;28;20043;-86
2023/01/12 10:26:04;;;;;;;0.60;0.40;;;;;;;;;;5094124;28;20055;-85
2023/01/12 10:28:35;;;;;;;1.02;0.40;;;;;;;;;;5094356;28;20052;-92
2023/01/12 10:31:02;;;;;;;1.35;0.30;;;;;;;;;;5094547;28;20105;-93
2023/01/12 10:33:31;;;;;;;0.85;0.20;;;;;;;;;;5094172;28;20625;-88
2023/01/12 10:36:08;;;;;;;0.68;0.40;;;;;;;;;;5094191;28;20048;-91
2023/01/12 10:38:37;;;;;;;4.22;0.47;;;;;;;;;;5094263;28;20048;-88
2023/01/12 10:41:18;;;;;;;2.92;0.50;;;;;;;;;;5094289;28;20040;-88
2023/01/12 10:43:58;;;;;;;0.93;0.50;;;;;;;;;;5094393;28;20110;-93
2023/01/12 10:46:27;;;;;;;0.95;0.40;;;;;;;;;;5093964;28;20055;-89
2023/01/12 10:48:55;;;;;;;1.08;0.32;;;;;;;;;;5094058;28;20131;-89
2023/01/12 10:51:22;;;;;;;0.60;0.20;;;;;;;;;;5093930;28;20048;-90
2023/01/12 10:53:58;;;;;;;1.65;0.40;;;;;;;;;;5094123;28;20086;-90
2023/01/12 10:56:28;;;;;;;1.38;0.30;;;;;;;;;;5093740;28;20044;-91
2023/01/12 10:58:57;;;;;;;1.65;0.32;;;;;;;;;;5093999;28;20060;-92
2023/01/12 11:01:24;;;;;;;0.60;0.40;;;;;;;;;;5093166;28;20072;-90
2023/01/12 11:04:03;;;;;;;2.50;0.57;;;;;;;;;;5093782;28;20086;-88
2023/01/12 11:06:31;;;;;;;1.33;0.30;;;;;;;;;;5092687;28;20554;-87
2023/01/12 11:09:16;;;;;;;2.08;0.63;;;;;;;;;;5092775;28;20055;-91
2023/01/12 11:11:43;;;;;;;5.05;0.47;;;;;;;;;;5092576;28;20054;-91
2023/01/12 11:14:20;;;;;;;1.65;0.40;;;;;;;;;;5092710;28;20047;-88
2023/01/12 11:16:50;;;;;;;0.43;0.30;;;;;;;;;;5092248;28;20269;-89
2023/01/12 11:19:20;;;;;;;2.50;0.45;;;;;;;;;;5092418;28;20048;-90
2023/01/12 11:21:57;;;;;;;1.08;0.30;;;;;;;;;;5092363;28;20044;-86
2023/01/12 11:24:30;;;;;;;1.98;0.57;;;;;;;;;;5092567;28;20048;-90
2023/01/12 11:27:08;;;;;;;1.55;0.40;;;;;;;;;;5092341;28;20138;-91
2023/01/12 11:29:53;;;;;;;1.80;0.40;;;;;;;;;;5093459;28;20139;-89
2023/01/12 11:32:20;;;;;;;2.47;0.40;;;;;;;;;;5092578;28;20085;-89
2023/01/12 11:34:59;;;;;;;1.95;0.43;;;;;;;;;;5092848;28;20117;-88
2023/01/12 11:37:27;;;;;;;0.43;0.43;;;;;;;;;;5092646;28;20469;-89
2023/01/12 11:40:03;;;;;;;0.43;0.20;;;;;;;;;;5092424;28;20079;-89
2023/01/12 11:45:38;;;;;;;1.33;0.52;;;;;;;;;;5093421;28;20048;-88
2023/01/12 11:48:10;;;;;;;1.98;0.30;;;;;;;;;;5092281;28;20051;-88
2023/01/12 11:50:38;;;;;;;1.02;0.28;;;;;;;;;;5092425;28;20488;-90
2023/01/12 11:53:06;;;;;;;1.58;0.20;;;;;;;;;;5092316;28;20090;-91
2023/01/12 11:55:39;;;;;;;0.82;0.32;;;;;;;;;;5092105;28;20044;-92
2023/01/12 11:58:06;;;;;;;2.72;0.38;;;;;;;;;;5092423;28;20051;-88
2023/01/12 12:00:37;;;;;;;1.58;0.20;;;;;;;;;;5092307;28;20070;-91
2023/01/12 12:03:13;;;;;;;0.57;0.45;;;;;;;;;;5092088;28;20138;-91
2023/01/12 12:05:54;;;;;;;0.40;0.32;;;;;;;;;;5091462;28;20101;-88
2023/01/12 12:08:40;;;;;;;0.60;0.30;;;;;;;;;;5094598;28;20435;-91
2023/01/12 12:11:20;;;;;;;1.73;0.30;;;;;;;;;;5093375;28;20044;-91
2023/01/12 12:14:13;;;;;;;0.20;0.20;;;;;;;;;;5092603;28;20143;-88
2023/01/12 12:17:02;;;;;;;1.20;0.45;;;;;;;;;;5096025;28;20095;-88
2023/01/12 12:19:56;;;;;;;0.32;0.30;;;;;;;;;;5095886;28;20068;-88
2023/01/12 12:22:32;;;;;;;1.33;0.35;;;;;;;;;;5095997;28;20048;-88
2023/01/12 12:24:59;;;;;;;4.20;0.30;;;;;;;;;;5096009;28;20423;-86
2023/01/12 12:27:29;;;;;;;0.30;0.30;;;;;;;;;;5096070;28;20041;-87
2023/01/12 12:30:15;;;;;;;1.05;0.30;;;;;;;;;;5095922;28;20048;-90
2023/01/12 12:32:55;;;;;;;0.93;0.45;;;;;;;;;;5096016;28;20139;-88
2023/01/12 12:35:30;;;;;;;1.45;0.60;;;;;;;;;;5096043;28;20068;-89
2023/01/12 12:38:19;;;;;;;0.30;0.30;;;;;;;;;;5095858;28;20051;-85
2023/01/12 12:46:59;;;;;;;1.65;0.40;;;;;;;;;;5096353;28;20154;-88
2023/01/12 12:49:31;;;;;;;0.10;0.10;;;;;;;;;;5095065;28;20051;-89
2023/01/12 12:51:59;;;;;;;1.83;0.30;;;;;;;;;;5095382;28;20060;-87
2023/01/12 12:54:28;;;;;;;1.15;0.30;;;;;;;;;;5095422;28;20086;-91
2023/01/12 12:56:56;;;;;;;1.00;0.22;;;;;;;;;;5095244;28;20079;-88
2023/01/12 12:59:32;;;;;;;1.45;0.30;;;;;;;;;;5095246;28;20155;-88
2023/01/12 13:02:01;;;;;;;0.45;0.20;;;;;;;;;;5095106;28;20044;-90
2023/01/12 13:04:45;;;;;;;1.38;0.30;;;;;;;;;;5095138;28;20109;-89
2023/01/12 13:07:15;;;;;;;;;;;;;;;;;;5095454;28;20523;-88
2023/01/12 13:09:45;;;;;;;3.15;0.30;;;;;;;;;;5094992;28;19949;-88
2023/01/12 13:12:12;;;;;;;2.25;0.32;;;;;;;;;;5094951;28;20052;-88
2023/01/12 13:14:41;;;;;;;0.52;0.30;;;;;;;;;;5095206;28;20542;-87
2023/01/12 13:17:17;;;;;;;0.50;0.28;;;;;;;;;;5094502;28;20051;-88
2023/01/12 13:19:46;;;;;;;1.30;0.25;;;;;;;;;;5095008;28;20055;-87
2023/01/12 13:22:18;;;;;;;0.55;0.10;;;;;;;;;;5095055;28;20066;-87
2023/01/12 13:24:45;;;;;;;2.70;0.30;;;;;;;;;;5094141;28;20063;-89
2023/01/12 13:27:31;;;;;;;1.02;0.32;;;;;;;;;;5094674;28;20126;-84
2023/01/12 13:30:17;;;;;;;1.20;0.40;;;;;;;;;;5094989;28;20052;-89
2023/01/12 13:32:54;;;;;;;2.42;0.45;;;;;;;;;;5094391;28;20070;-88
2023/01/12 13:35:26;;;;;;;2.05;0.77;;;;;;;;;;5094391;28;20154;-88
2023/01/12 13:38:12;;;;;;;0.77;0.28;;;;;;;;;;5094887;28;20075;-88
2023/01/12 13:40:39;;;;;;;1.42;0.40;;;;;;;;;;5094229;28;20059;-90
2023/01/12 13:43:14;;;;;;;1.75;0.20;;;;;;;;;;5094309;28;20085;-87
2023/01/12 13:46:00;;;;;;;1.02;0.30;;;;;;;;;;5094123;28;20066;-87
2023/01/12 13:48:29;;;;;;;1.23;0.30;;;;;;;;;;5094389;28;20048;-88
2023/01/12 13:51:16;;;;;;;1.50;0.30;;;;;;;;;;5093849;28;20052;-88
2023/01/12 13:53:43;;;;;;;1.23;0.50;;;;;;;;;;5093704;28;20381;-86
2023/01/12 13:56:18;;;;;;;0.30;0.30;;;;;;;;;;5093649;28;20130;-88
2023/01/12 13:58:49;;;;;;;2.38;0.50;;;;;;;;;;5094086;28;20142;-88
2023/01/12 14:01:26;;;;;;;1.52;0.40;;;;;;;;;;5094560;28;20055;-88
2023/01/12 14:03:54;;;;;;;1.73;0.50;;;;;;;;;;5095146;28;20048;-90
2023/01/12 14:06:21;;;;;;;3.05;0.77;;;;;;;;;;5094061;28;20054;-88
2023/01/12 14:08:52;;;;;;;1.75;0.68;;;;;;;;;;5093645;28;20048;-89
2023/01/12 14:11:46;;;;;;;1.05;0.50;;;;;;;;;;5093941;28;20044;-89
2023/01/12 14:20:18;;;;;;;2.40;0.65;;;;;;;;;;5054332;28;20045;-88
2023/01/12 14:22:45;;;;;;;2.03;0.50;;;;;;;;;;5053414;28;20065;-90
2023/01/12 14:25:20;;;;;;;3.60;0.50;;;;;;;;;;5053388;28;20049;-91
2023/01/12 14:27:50;;;;;;;1.02;0.32;;;;;;;;;;5052687;28;20139;-89
2023/01/12 14:30:18;;;;;;;0.88;0.43;;;;;;;;;;5053522;28;20045;-89
2023/01/12 14:32:49;;;;;;;2.70;0.50;;;;;;;;;;5053207;28;20139;-86
2023/01/12 14:35:18;;;;;;;0.73;0.40;;;;;;;;;;5053177;28;20073;-87
2023/01/12 14:37:52;;;;;;;1.75;0.50;;;;;;;;;;5052115;28;20152;-89
2023/01/12 14:40:38;;;;;;;1.90;0.30;;;;;;;;;;5053078;28;20136;-87
2023/01/12 14:48:59;;;;;;;1.30;0.30;;;;;;;;;;5053893;28;20528;-89
2023/01/12 14:51:31;;;;;;;0.75;0.30;;;;;;;;;;5053286;28;20091;-90
2023/01/12 14:54:00;;;;;;;0.80;0.40;;;;;;;;;;5053111;28;20227;-89
2023/01/12 14:56:38;;;;;;;1.10;0.28;;;;;;;;;;5052759;28;20056;-90
2023/01/12 14:59:13;;;;;;;0.55;0.20;;;;;;;;;;5053070;28;20056;-88
2023/01/12 15:01:41;;;;;;;0.70;0.52;;;;;;;;;;5053434;28;20059;-88
2023/01/12 15:04:14;;;;;;;5.25;3.03;;;;;;;;;;5052607;28;20440;-90
2023/01/12 15:06:42;;;;;;;;;;;;;;;;;;5053115;28;20057;-89
2023/01/12 15:09:24;;;;;;;0.50;0.30;;;;;;;;;;5052820;28;20108;-88
2023/01/12 15:11:51;;;;;;;1.25;0.60;;;;;;;;;;5052433;28;20338;-88
2023/01/12 15:14:21;;;;;;;1.02;0.30;;;;;;;;;;5053006;28;20084;-89
2023/01/12 15:25:35;;;;;;;0.22;0.20;;;;;;;;;;5094130;28;20044;-88
2023/01/12 15:28:04;;;;;;;1.23;0.63;;;;;;;;;;5093182;28;20047;-89
2023/01/12 15:30:32;;;;;;;1.88;1.00;;;;;;;;;;5093081;28;20249;-88
2023/01/12 15:33:01;;;;;;;0.57;0.35;;;;;;;;;;5093135;28;20075;-89
2023/01/12 15:35:29;;;;;;;0.55;0.30;;;;;;;;;;5093043;28;20488;-88
2023/01/12 15:37:57;;;;;;;0.55;0.30;;;;;;;;;;5092763;28;20047;-87
2023/01/12 15:40:26;;;;;;;1.27;0.28;;;;;;;;;;5092805;28;20048;-88
2023/01/12 15:42:53;;;;;;;1.35;0.40;;;;;;;;;;5092692;28;20044;-91
2023/01/12 15:45:39;;;;;;;1.52;0.55;;;;;;;;;;5093081;28;20056;-87
2023/01/12 15:48:07;;;;;;;1.42;0.40;;;;;;;;;;5093680;28;20051;-87
2023/01/12 15:50:36;;;;;;;1.75;0.57;;;;;;;;;;5092833;28;20075;-88
2023/01/12 15:53:05;;;;;;;1.13;0.50;;;;;;;;;;5092221;28;20496;-89
2023/01/12 15:55:34;;;;;;;2.42;0.80;;;;;;;;;;5091823;28;20143;-89
2023/01/12 15:58:02;;;;;;;1.13;0.40;;;;;;;;;;5091790;28;20457;-88